Mons, Belgium
Current Conditions -  °F | °C
As of 2:25 AM on Sunday 23 Nov 2014 (Local Time) from EBCV Reporting Station
Scattered Clouds Scattered Clouds  
Wind Chill: 52°   Ceiling: Unl
Heat Index: 52°   Visibility: 6mi
Dew Point: 48°   Wind: 6mph
Humidity: 88%   Direction: 150°SSE
Pressure: 30.03"   Gusts: NA
Location:  50.45°N, 3.97°E
Report Text: EBCV 230125Z AUTO 15005KT 9999 FEW100/// SCT120/// 11/09 Q1017 BLU
Loading
Personal Weather Stations






























Interactive Weather Map New forecast layout! Learn more

10-Day Weather Forecast

Advertisements
Track Severe Weather on mobile